Latest Weather Observations for Century Mine

IDQ60801

Issued at 12:02 am EST Saturday 5 September 2015 (issued every 30 minutes, with the page automatically refreshed every 10 minutes)

About weather observations | Map of weather stations | Latest weather observations for QLD | Other Formats
Station Details ID: 029167 Name: CENTURY MINE Lat: -18.76 Lon: 138.71 Height: 126.8 m
Data from the previous 72 hours. | See also: Recent months at Century Mine
Date/Time
EST
Temp
°C
App
Temp
°C
Dew
Point
Rel
Hum
%
Delta-T
°C
Wind Press
QNH
hPa
Press
MSL
hPa
Rain
since 9 am
mm
Dir
 
Spd
km/h
Gust
km/h
Spd
kts
Gust
kts
04/11:30pm 22.2 17.5 -4.8 16 11.1 S 11 15 6 8 1019.6 1019.0 0.0
04/11:00pm 22.5 18.2 -4.5 16 11.2 S 9 13 5 7 1019.5 1018.9 0.0
04/10:30pm 23.0 18.7 -5.0 15 11.6 S 9 13 5 7 1019.5 1018.9 0.0
04/10:00pm 23.5 19.2 -4.6 15 11.7 S 9 17 5 9 1019.5 1018.9 0.0
04/09:30pm 24.4 19.7 -4.8 14 12.3 S 11 19 6 10 1019.1 1018.5 0.0
04/09:00pm 25.0 20.0 -4.3 14 12.5 S 13 19 7 10 1018.8 1018.2 0.0
04/08:30pm 25.6 20.7 -3.8 14 12.7 S 13 17 7 9 1018.5 1017.9 0.0
04/08:00pm 25.8 21.1 -4.7 13 13.0 S 11 15 6 8 1018.1 1017.5 0.0
04/07:30pm 26.8 21.7 -4.9 12 13.6 S 13 20 7 11 1017.8 1017.2 0.0
04/07:00pm 27.4 22.3 -5.6 11 14.0 S 13 20 7 11 1017.5 1016.8 0.0
04/06:30pm 28.5 22.6 -6.0 10 14.7 S 17 26 9 14 1017.1 1016.4 0.0
04/06:00pm 29.7 23.9 -5.1 10 15.2 S 17 28 9 15 1016.8 1016.1 0.0
04/05:30pm 30.5 25.1 -4.5 10 15.6 S 15 28 8 15 1016.6 1015.9 0.0
04/05:00pm 31.0 25.6 -4.1 10 15.8 SSW 15 24 8 13 1016.5 1015.8 0.0
04/04:30pm 30.9 24.8 -4.2 10 15.8 S 19 33 10 18 1016.4 1015.7 0.0
04/04:00pm 30.7 24.5 -3.1 11 15.4 SW 20 32 11 17 1016.5 1015.8 0.0
04/03:30pm 30.9 25.3 -3.0 11 15.6 SW 17 30 9 16 1016.8 1016.1 0.0
04/03:00pm 30.8 25.2 -3.0 11 15.5 S 17 22 9 12 1017.2 1016.5 0.0
04/02:30pm 30.8 25.2 -3.0 11 15.5 S 17 30 9 16 1017.6 1016.9 0.0
04/02:00pm 31.0 25.0 -2.9 11 15.6 SSW 19 32 10 17 1018.0 1017.4 0.0
04/01:30pm 30.7 25.1 -3.1 11 15.5 SSE 17 24 9 13 1018.4 1017.8 0.0
04/01:00pm 29.8 24.6 -2.6 12 14.8 S 15 26 8 14 1019.0 1018.4 0.0
04/12:30pm 29.4 25.4 -1.9 13 14.5 SSE 9 17 5 9 1019.6 1019.0 0.0
04/12:00pm 28.6 24.2 -2.5 13 14.1 SSE 11 20 6 11 1020.3 1019.6 0.0
04/11:30am 27.7 23.3 -2.2 14 13.6 SSE 11 19 6 10 1020.9 1020.2 0.0
04/11:00am 26.9 21.8 -1.9 15 13.0 SE 15 22 8 12 1021.3 1020.6 0.0
04/10:30am 26.2 20.8 -1.6 16 12.6 ESE 17 26 9 14 1021.7 1021.0 0.0
04/10:00am 25.0 19.9 -1.7 17 11.9 SSE 15 22 8 12 1022.0 1021.3 0.0
04/09:30am 23.9 18.4 -1.8 18 11.4 SE 17 26 9 14 1021.8 1021.1 0.0
04/09:00am 23.2 17.8 -1.7 19 11.0 SSE 17 28 9 15 1021.8 1021.1 0.0
04/08:30am 22.0 17.6 -2.7 19 10.6 SSE 11 17 6 9 1021.6 1020.9 0.0
04/08:00am 20.1 15.3 -2.9 21 9.6 S 13 19 7 10 1021.3 1020.6 0.0
04/07:30am 18.4 14.3 -3.1 23 8.8 S 9 15 5 8 1021.0 1020.3 0.0
04/07:00am 17.5 13.4 -3.3 24 8.4 S 9 13 5 7 1020.6 1019.9 0.0
04/06:30am 17.8 13.6 -3.6 23 8.7 S 9 13 5 7 1020.1 1019.4 0.0
04/06:00am 18.6 13.7 -3.5 22 9.0 S 13 19 7 10 1019.4 1018.8 0.0
04/05:30am 18.8 14.3 -3.3 22 9.1 S 11 15 6 8 1018.9 1018.3 0.0
04/05:00am 18.3 14.5 -3.8 22 8.9 S 7 11 4 6 1018.4 1017.8 0.0
04/04:30am 18.8 14.7 -3.3 22 9.1 S 9 13 5 7 1018.2 1017.6 0.0
04/04:00am 18.6 14.5 -2.9 23 8.9 S 9 13 5 7 1018.1 1017.5 0.0
04/03:30am 16.5 12.5 -2.5 27 7.8 S 9 11 5 6 1018.0 1017.4 0.0
04/03:00am 15.2 12.4 -3.2 28 7.3 SSW 2 9 1 5 1018.0 1017.4 0.0
04/02:30am 15.3 12.9 -3.1 28 7.3 CALM 0 6 0 3 1018.1 1017.5 0.0
04/02:00am 15.9 13.4 -3.6 26 7.7 CALM 0 0 0 0 1018.3 1017.7 0.0
04/01:30am 16.6 12.4 -3.5 25 8.1 SSW 9 9 5 5 1018.6 1018.0 0.0
04/01:00am 16.7 12.9 -3.9 24 8.2 S 7 9 4 5 1018.6 1018.0 0.0
04/12:30am 17.5 13.6 -4.4 22 8.7 SSW 7 7 4 4 1018.7 1018.1 0.0
04/12:00am 17.9 14.1 -4.1 22 8.8 SSW 7 9 4 5 1018.8 1018.2 0.0
 
Date/Time
EST
Temp
°C
App
Temp
°C
Dew
Point
Rel
Hum
%
Delta-T
°C
Wind Press
QNH
hPa
Press
MSL
hPa
Rain
since 9 am
mm
Dir
 
Spd
km/h
Gust
km/h
Spd
kts
Gust
kts
03/11:30pm 18.2 14.4 -3.8 22 8.9 SSW 7 9 4 5 1018.9 1018.3 0.0
03/11:00pm 18.0 14.2 -4.0 22 8.8 SSW 7 9 4 5 1018.9 1018.3 0.0
03/10:30pm 18.2 14.3 -4.5 21 9.0 S 7 9 4 5 1018.9 1018.3 0.0
03/10:00pm 18.7 14.9 -4.0 21 9.2 S 7 9 4 5 1019.0 1018.4 0.0
03/09:30pm 19.8 16.1 -4.5 19 9.8 SSE 6 6 3 3 1018.9 1018.3 0.0
03/09:00pm 20.6 17.7 -4.5 18 10.2 SE 2 6 1 3 1018.7 1018.1 0.0
03/08:30pm 21.4 18.8 -5.4 16 10.8 CALM 0 7 0 4 1018.4 1017.8 0.0
03/08:00pm 23.2 20.1 -5.7 14 11.8 ESE 2 6 1 3 1018.0 1017.4 0.0
03/07:30pm 26.1 22.2 -4.4 13 13.1 E 7 9 4 5 1017.6 1016.9 0.0
03/07:00pm 27.5 23.2 -4.4 12 13.9 ENE 9 13 5 7 1017.3 1016.6 0.0
03/06:30pm 29.1 24.5 -4.3 11 14.8 ENE 11 17 6 9 1016.9 1016.2 0.0
03/06:00pm 30.4 26.7 -4.6 10 15.5 ENE 6 19 3 10 1016.8 1016.1 0.0
03/05:30pm 31.1 26.9 -4.1 10 15.9 SE 9 13 5 7 1016.6 1015.9 0.0
03/05:00pm 31.3 27.5 -3.9 10 15.9 E 7 17 4 9 1016.6 1015.9 0.0
03/04:30pm 31.3 27.1 -3.9 10 16.0 ESE 9 17 5 9 1016.5 1015.8 0.0
03/04:00pm 31.7 27.2 -3.6 10 16.1 E 11 20 6 11 1016.4 1015.7 0.0
03/03:30pm 31.4 26.8 -3.8 10 16.0 SE 11 15 6 8 1016.5 1015.8 0.0
03/03:00pm 30.9 26.4 -3.0 11 15.5 SSE 11 24 6 13 1016.9 1016.2 0.0
03/02:30pm 30.8 25.9 -3.0 11 15.5 ESE 13 22 7 12 1017.1 1016.4 0.0
03/02:00pm 30.7 25.8 -3.1 11 15.4 SE 13 26 7 14 1017.4 1016.7 0.0
03/01:30pm 30.5 25.6 -3.3 11 15.4 E 13 26 7 14 1018.0 1017.4 0.0
03/01:00pm 31.3 27.0 -1.5 12 15.5 E 11 20 6 11 1018.5 1017.9 0.0
03/12:30pm 30.1 25.3 -2.4 12 15.0 ESE 13 24 7 13 1019.1 1018.5 0.0
03/12:00pm 29.9 24.7 -2.6 12 14.9 ESE 15 24 8 13 1019.6 1019.0 0.0
03/11:30am 28.7 23.9 -2.4 13 14.2 SE 13 22 7 12 1020.3 1019.6 0.0
03/11:00am 29.2 24.2 -1.0 14 14.1 E 15 24 8 13 1020.5 1019.8 0.0
03/10:30am 28.0 22.4 -3.0 13 13.9 SE 17 28 9 15 1020.9 1020.2 0.0
03/10:00am 26.9 21.2 -3.8 13 13.4 SE 17 33 9 18 1020.8 1020.1 0.0
03/09:30am 26.4 20.8 -3.2 14 13.1 SE 17 24 9 13 1020.7 1020.0 0.0
03/09:00am 26.2 20.9 -3.4 14 12.9 SE 15 24 8 13 1020.4 1019.7 0.0
03/08:30am 25.5 20.1 -1.3 17 12.2 SE 17 26 9 14 1020.1 1019.4 0.0
03/08:00am 24.5 20.4 0.1 20 11.2 SSE 11 17 6 9 1019.5 1018.9 0.0
03/07:30am 22.6 19.0 0.4 23 10.2 S 9 11 5 6 1019.0 1018.4 0.0
03/07:00am 22.3 18.3 0.8 24 9.9 S 11 15 6 8 1018.3 1017.7 0.0
03/06:30am 22.5 18.9 0.9 24 10.0 S 9 11 5 6 1017.7 1017.1 0.0
03/06:00am 23.3 19.8 1.0 23 10.4 SSE 9 13 5 7 1017.2 1016.5 0.0
03/05:30am 23.7 19.8 1.4 23 10.5 SSE 11 17 6 9 1016.7 1016.0 0.0
03/05:00am 23.7 19.9 2.0 24 10.3 S 11 17 6 9 1016.2 1015.5 0.0
03/04:30am 24.2 20.5 2.4 24 10.5 SSE 11 17 6 9 1015.8 1015.1 0.0
03/04:00am 23.9 20.6 2.7 25 10.2 SSE 9 15 5 8 1015.7 1015.0 0.0
03/03:30am 24.3 20.6 2.5 24 10.5 S 11 17 6 9 1015.4 1014.7 0.0
03/03:00am 24.6 20.9 2.1 23 10.8 S 11 19 6 10 1015.2 1014.5 0.0
03/02:30am 24.4 21.3 3.7 26 10.2 SSW 9 13 5 7 1015.5 1014.8 0.0
03/02:00am 22.7 20.9 8.0 39 7.8 SSW 7 11 4 6 1015.4 1014.7 0.0
03/01:30am 22.8 21.1 8.5 40 7.6 SSW 7 9 4 5 1015.6 1014.9 0.0
03/01:00am 23.5 21.9 8.8 39 7.9 SW 7 9 4 5 1015.7 1015.0 0.0
03/12:30am 22.4 21.6 8.1 40 7.6 WNW 2 7 1 4 1015.6 1014.9 0.0
03/12:00am 23.2 23.0 8.9 40 7.7 CALM 0 6 0 3 1015.7 1015.0 0.0
 
Date/Time
EST
Temp
°C
App
Temp
°C
Dew
Point
Rel
Hum
%
Delta-T
°C
Wind Press
QNH
hPa
Press
MSL
hPa
Rain
since 9 am
mm
Dir
 
Spd
km/h
Gust
km/h
Spd
kts
Gust
kts
02/11:30pm 23.6 22.0 8.1 37 8.2 N 6 7 3 4 1015.5 1014.8 0.0
02/11:00pm 25.8 24.3 9.2 35 9.1 NNW 7 9 4 5 1015.4 1014.7 0.0
02/10:30pm 26.7 25.2 9.1 33 9.7 NNW 7 13 4 7 1015.1 1014.4 0.0
02/10:00pm 27.9 25.1 10.1 33 10.0 N 15 20 8 11 1014.6 1013.9 0.0
02/09:30pm 28.2 25.8 9.9 32 10.3 N 13 20 7 11 1014.2 1013.5 0.0
02/09:00pm 28.8 25.9 9.5 30 10.8 N 15 20 8 11 1014.0 1013.3 0.0
02/08:30pm 29.5 26.8 9.1 28 11.4 N 13 22 7 12 1013.6 1012.9 0.0
02/08:00pm 30.7 27.5 8.4 25 12.4 N 15 20 8 11 1013.1 1012.4 0.0
02/07:30pm 31.5 27.8 7.9 23 13.1 NNW 17 24 9 13 1012.4 1011.7 0.0
02/07:00pm 30.6 27.7 -0.9 13 15.0 NW 4 7 2 4 1011.8 1011.1 0.0
02/06:30pm 33.8 30.6 0.5 12 16.5 NNW 7 13 4 7 1011.4 1010.8 0.0
02/06:00pm 35.7 31.7 0.7 11 17.7 NW 11 17 6 9 1011.2 1010.6 0.0
02/05:30pm 36.7 32.9 1.5 11 18.1 WNW 11 19 6 10 1011.1 1010.5 0.0
02/05:00pm 36.9 33.1 1.6 11 18.2 W 11 19 6 10 1011.0 1010.4 0.0
02/04:30pm 36.8 31.2 1.5 11 18.1 N 20 28 11 15 1011.0 1010.4 0.0
02/04:00pm 37.3 32.0 -0.9 9 19.0 NNW 17 24 9 13 1011.0 1010.4 0.0
02/03:30pm 36.6 31.6 -1.4 9 18.6 NW 15 28 8 15 1011.2 1010.6 0.0
02/03:00pm 36.1 31.2 -0.3 10 18.1 WNW 15 24 8 13 1011.5 1010.9 0.0
02/02:30pm 37.6 32.8 -2.2 8 19.4 NNW 13 22 7 12 1011.9 1011.2 0.0
02/02:00pm 36.7 31.1 -2.9 8 19.0 NW 17 30 9 16 1012.3 1011.6 0.0
02/01:30pm 37.3 31.2 -2.4 8 19.3 N 20 30 11 16 1012.8 1012.1 0.0
02/01:00pm 35.9 29.8 -3.5 8 18.6 N 19 30 10 16 1013.4 1012.7 0.0
02/12:30pm 36.1 29.9 -3.3 8 18.7 NNW 20 30 11 16 1014.0 1013.3 0.0
02/12:00pm 35.2 29.9 -4.0 8 18.3 N 15 24 8 13 1014.5 1013.8 0.0
02/11:30am 34.1 27.9 -4.8 8 17.7 NNW 19 28 10 15 1014.9 1014.2 0.0
02/11:00am 32.8 27.0 -4.2 9 16.9 NNW 17 22 9 12 1015.3 1014.6 0.0
02/10:30am 31.9 26.2 -3.5 10 16.2 NNW 17 24 9 13 1015.4 1014.7 0.0
02/10:00am 30.4 24.2 -4.6 10 15.6 NNW 19 26 10 14 1015.6 1014.9 0.0
02/09:30am 29.4 23.0 -5.4 10 15.1 NW 20 28 11 15 1015.5 1014.8 0.0
02/09:00am 27.3 23.7 -3.5 13 13.6 NNW 6 11 3 6 1015.1 1014.4 0.0
02/08:30am 23.8 20.5 -4.4 15 11.9 N 4 7 2 4 1014.8 1014.1 0.0
02/08:00am 19.6 17.3 -2.7 22 9.3 CALM 0 6 0 3 1014.5 1013.8 0.0
02/07:30am 15.1 12.7 -2.8 29 7.2 CALM 0 0 0 0 1014.5 1013.8 0.0
02/07:00am 13.4 10.2 -3.4 31 6.5 SE 4 7 2 4 1014.4 1013.7 0.0
02/06:30am 13.9 11.5 -3.4 30 6.7 CALM 0 0 0 0 1014.1 1013.4 0.0
02/06:00am 14.2 11.8 -3.1 30 6.8 CALM 0 0 0 0 1013.8 1013.1 0.0
02/05:30am 14.0 11.5 -3.7 29 6.9 CALM 0 0 0 0 1013.3 1012.6 0.0
02/05:00am 14.7 11.2 -3.1 29 7.1 E 6 7 3 4 1013.2 1012.5 0.0
02/04:30am 15.2 12.8 -3.2 28 7.3 CALM 0 0 0 0 1013.3 1012.6 0.0
02/04:00am 16.2 13.8 -3.3 26 7.8 CALM 0 0 0 0 1013.5 1012.8 0.0
02/03:30am 17.6 14.8 -3.7 23 8.6 NNE 2 6 1 3 1013.6 1012.9 0.0
02/03:00am 19.3 15.8 -2.9 22 9.2 NNW 6 6 3 3 1013.7 1013.0 0.0
02/02:30am 19.9 16.5 -2.4 22 9.4 NNW 6 7 3 4 1013.8 1013.1 0.0
02/02:00am 18.5 15.0 -3.0 23 8.9 NW 6 7 3 4 1013.9 1013.2 0.0
02/01:30am 19.6 15.9 -4.6 19 9.8 NW 6 9 3 5 1014.0 1013.3 0.0
02/01:00am 21.6 17.6 -2.3 20 10.3 NW 9 11 5 6 1014.0 1013.3 0.0
02/12:30am 17.0 12.8 -4.3 23 8.4 NW 9 11 5 6 1014.1 1013.4 0.0

Other Formats:

Comma delimited format used in spreadsheet applications
http://www.bom.gov.au/fwo/IDQ60801/IDQ60801.94261.axf

JavaScript Object Notation format (JSON) in row-major order
http://www.bom.gov.au/fwo/IDQ60801/IDQ60801.94261.json